Portada
METAR-TAF:

METAR-TAF

Aeroports :

Mae Sot, Tailàndia

latitud: 16-40N, longitud: 098-33E, altitud: 196 m

Observació

L'informe es va fer fa 51 minuts, a les 00:00 UTC
Vent calma
Temperatura 21°C
Humitat 64%
Pressió 1013 hPa
Visibilitat: 5000 m
calitja

METAR: VTPM 040000Z 00000KT 5000 HZ NSC 21/14 Q1013 NOSIG

Hora: 07:51 (00:51 UTC)

Pronòstic

L'informe es va fer fa 1 hora i 51 minuts, a les 23:00 UTC
Pronòstic vàlid del 04 a les 00 UTC al 04 a les 24 UTC
Vent 7 kt del Oest
Visibilitat: 2000 m
boirina
Evolucionant progressivament
l' 04 a les 05 UTC al 04 a les 07 UTC
Visibilitat: 7000 m

TAF: VTPM 032300Z 0400/0424 26007KT 2000 BR NSC BECMG 0405/0407 7000 NSW

Observacions i pronòstics meteorològics de més de 4000 aeroports (METAR i TAF).

Les estacions disponibles són els punts grocs i vermells al mapa.

Posi el ratolí al punt desitjat per veure el nom de l'estació.

Feu clic per veure les observacions i els pronòstics meteorològics.

Per canviar el mapa: feu clic els botons verds amb una creu de color negre per apropar; al botó verd amb un guió per allunyar la imatge; o en les fletxes verdes per a mapes adjacents.


METAR-TAF: